sensor_id;sensor_type;location;lat;lon;timestamp;temperature;humidity
51878;SHT31;37911;51.526;11.536;2023-11-22T00:01:53;1.35;80.36
51878;SHT31;37911;51.526;11.536;2023-11-22T00:04:56;1.28;80.55
51878;SHT31;37911;51.526;11.536;2023-11-22T00:08:00;1.23;80.66
51878;SHT31;37911;51.526;11.536;2023-11-22T00:11:04;1.13;80.81
51878;SHT31;37911;51.526;11.536;2023-11-22T00:14:07;1.14;81.10
51878;SHT31;37911;51.526;11.536;2023-11-22T00:17:13;1.10;81.01
51878;SHT31;37911;51.526;11.536;2023-11-22T00:20:18;1.11;81.07
51878;SHT31;37911;51.526;11.536;2023-11-22T00:23:21;1.08;81.08
51878;SHT31;37911;51.526;11.536;2023-11-22T00:26:29;0.96;81.36
51878;SHT31;37911;51.526;11.536;2023-11-22T00:29:34;1.03;81.36
51878;SHT31;37911;51.526;11.536;2023-11-22T00:32:40;0.99;81.80
51878;SHT31;37911;51.526;11.536;2023-11-22T00:35:43;0.96;82.04
51878;SHT31;37911;51.526;11.536;2023-11-22T00:38:47;0.91;82.24
51878;SHT31;37911;51.526;11.536;2023-11-22T00:41:50;0.96;82.37
51878;SHT31;37911;51.526;11.536;2023-11-22T00:44:54;0.94;82.17
51878;SHT31;37911;51.526;11.536;2023-11-22T00:48:00;0.91;82.30
51878;SHT31;37911;51.526;11.536;2023-11-22T00:51:03;0.93;82.43
51878;SHT31;37911;51.526;11.536;2023-11-22T00:54:09;0.89;82.31
51878;SHT31;37911;51.526;11.536;2023-11-22T00:57:13;0.80;82.40
51878;SHT31;37911;51.526;11.536;2023-11-22T01:00:17;0.77;82.46
51878;SHT31;37911;51.526;11.536;2023-11-22T01:03:23;0.73;82.58
51878;SHT31;37911;51.526;11.536;2023-11-22T01:06:27;0.73;82.12
51878;SHT31;37911;51.526;11.536;2023-11-22T01:09:32;0.73;82.29
51878;SHT31;37911;51.526;11.536;2023-11-22T01:12:36;0.76;82.28
51878;SHT31;37911;51.526;11.536;2023-11-22T01:15:39;0.77;82.42
51878;SHT31;37911;51.526;11.536;2023-11-22T01:18:47;0.76;82.67
51878;SHT31;37911;51.526;11.536;2023-11-22T01:21:51;0.84;82.58
51878;SHT31;37911;51.526;11.536;2023-11-22T01:24:54;0.83;82.81
51878;SHT31;37911;51.526;11.536;2023-11-22T01:27:58;0.81;82.43
51878;SHT31;37911;51.526;11.536;2023-11-22T01:31:02;0.76;82.34
51878;SHT31;37911;51.526;11.536;2023-11-22T01:34:08;0.80;82.26
51878;SHT31;37911;51.526;11.536;2023-11-22T01:37:12;0.83;82.32
51878;SHT31;37911;51.526;11.536;2023-11-22T01:40:16;0.89;82.49
51878;SHT31;37911;51.526;11.536;2023-11-22T01:43:20;0.94;82.40
51878;SHT31;37911;51.526;11.536;2023-11-22T01:46:24;0.90;82.25
51878;SHT31;37911;51.526;11.536;2023-11-22T01:49:32;0.84;82.24
51878;SHT31;37911;51.526;11.536;2023-11-22T01:52:36;0.75;82.52
51878;SHT31;37911;51.526;11.536;2023-11-22T01:55:40;0.80;82.38
51878;SHT31;37911;51.526;11.536;2023-11-22T01:58:44;0.73;82.76
51878;SHT31;37911;51.526;11.536;2023-11-22T02:01:48;0.77;82.94
51878;SHT31;37911;51.526;11.536;2023-11-22T02:04:54;0.83;83.02
51878;SHT31;37911;51.526;11.536;2023-11-22T02:07:59;0.89;83.14
51878;SHT31;37911;51.526;11.536;2023-11-22T02:11:03;0.80;83.36
51878;SHT31;37911;51.526;11.536;2023-11-22T02:14:06;0.83;83.29
51878;SHT31;37911;51.526;11.536;2023-11-22T02:17:10;0.84;83.21
51878;SHT31;37911;51.526;11.536;2023-11-22T02:20:16;0.83;82.87
51878;SHT31;37911;51.526;11.536;2023-11-22T02:23:22;0.77;83.08
51878;SHT31;37911;51.526;11.536;2023-11-22T02:26:27;0.79;82.77
51878;SHT31;37911;51.526;11.536;2023-11-22T02:29:31;0.83;82.44
51878;SHT31;37911;51.526;11.536;2023-11-22T02:32:35;0.77;82.64
51878;SHT31;37911;51.526;11.536;2023-11-22T02:35:39;0.72;82.59
51878;SHT31;37911;51.526;11.536;2023-11-22T02:38:45;0.66;82.61
51878;SHT31;37911;51.526;11.536;2023-11-22T02:41:49;0.59;82.79
51878;SHT31;37911;51.526;11.536;2023-11-22T02:44:54;0.59;82.67
51878;SHT31;37911;51.526;11.536;2023-11-22T02:47:57;0.48;82.81
51878;SHT31;37911;51.526;11.536;2023-11-22T02:51:02;0.42;82.84
51878;SHT31;37911;51.526;11.536;2023-11-22T02:54:09;0.48;82.92
51878;SHT31;37911;51.526;11.536;2023-11-22T02:57:13;0.32;82.71
51878;SHT31;37911;51.526;11.536;2023-11-22T03:00:17;0.30;82.78
51878;SHT31;37911;51.526;11.536;2023-11-22T03:03:22;0.24;82.91
51878;SHT31;37911;51.526;11.536;2023-11-22T03:06:25;0.14;82.94
51878;SHT31;37911;51.526;11.536;2023-11-22T03:09:32;0.09;82.94
51878;SHT31;37911;51.526;11.536;2023-11-22T03:12:40;0.14;83.07
51878;SHT31;37911;51.526;11.536;2023-11-22T03:15:44;0.18;83.07
51878;SHT31;37911;51.526;11.536;2023-11-22T03:18:47;0.12;82.89
51878;SHT31;37911;51.526;11.536;2023-11-22T03:21:51;0.09;82.75
51878;SHT31;37911;51.526;11.536;2023-11-22T03:24:59;0.09;82.69
51878;SHT31;37911;51.526;11.536;2023-11-22T03:28:03;0.04;82.89
51878;SHT31;37911;51.526;11.536;2023-11-22T03:31:08;-0.02;82.74
51878;SHT31;37911;51.526;11.536;2023-11-22T03:34:11;-0.01;82.85
51878;SHT31;37911;51.526;11.536;2023-11-22T03:37:15;0.04;82.51
51878;SHT31;37911;51.526;11.536;2023-11-22T03:40:22;-0.02;82.68
51878;SHT31;37911;51.526;11.536;2023-11-22T03:43:25;-0.02;82.72
51878;SHT31;37911;51.526;11.536;2023-11-22T03:46:29;-0.03;82.74
51878;SHT31;37911;51.526;11.536;2023-11-22T03:49:33;-0.03;82.78
51878;SHT31;37911;51.526;11.536;2023-11-22T03:52:36;0.02;82.58
51878;SHT31;37911;51.526;11.536;2023-11-22T03:55:42;0.04;82.57
51878;SHT31;37911;51.526;11.536;2023-11-22T03:58:45;-0.01;82.46
51878;SHT31;37911;51.526;11.536;2023-11-22T04:01:49;-0.06;82.51
51878;SHT31;37911;51.526;11.536;2023-11-22T04:04:52;-0.03;82.80
51878;SHT31;37911;51.526;11.536;2023-11-22T04:07:56;-0.03;82.68
51878;SHT31;37911;51.526;11.536;2023-11-22T04:11:03;-0.03;82.85
51878;SHT31;37911;51.526;11.536;2023-11-22T04:14:07;-0.03;82.80
51878;SHT31;37911;51.526;11.536;2023-11-22T04:17:10;-0.01;82.99
51878;SHT31;37911;51.526;11.536;2023-11-22T04:20:14;0.04;83.15
51878;SHT31;37911;51.526;11.536;2023-11-22T04:23:18;0.05;83.04
51878;SHT31;37911;51.526;11.536;2023-11-22T04:26:24;0.12;83.07
51878;SHT31;37911;51.526;11.536;2023-11-22T04:29:28;0.15;83.05
51878;SHT31;37911;51.526;11.536;2023-11-22T04:32:31;0.29;82.57
51878;SHT31;37911;51.526;11.536;2023-11-22T04:35:34;0.28;82.39
51878;SHT31;37911;51.526;11.536;2023-11-22T04:38:39;0.32;82.23
51878;SHT31;37911;51.526;11.536;2023-11-22T04:41:45;0.35;82.10
51878;SHT31;37911;51.526;11.536;2023-11-22T04:44:49;0.38;82.11
51878;SHT31;37911;51.526;11.536;2023-11-22T04:47:52;0.38;82.01
51878;SHT31;37911;51.526;11.536;2023-11-22T04:50:57;0.44;82.08
51878;SHT31;37911;51.526;11.536;2023-11-22T04:54:01;0.48;81.99
51878;SHT31;37911;51.526;11.536;2023-11-22T04:57:07;0.42;81.93
51878;SHT31;37911;51.526;11.536;2023-11-22T05:00:11;0.44;81.59
51878;SHT31;37911;51.526;11.536;2023-11-22T05:03:15;0.42;81.54
51878;SHT31;37911;51.526;11.536;2023-11-22T05:06:18;0.39;81.65
51878;SHT31;37911;51.526;11.536;2023-11-22T05:09:22;0.33;81.61
51878;SHT31;37911;51.526;11.536;2023-11-22T05:12:28;0.30;82.35
51878;SHT31;37911;51.526;11.536;2023-11-22T05:15:32;0.26;82.80
51878;SHT31;37911;51.526;11.536;2023-11-22T05:18:35;0.21;83.04
51878;SHT31;37911;51.526;11.536;2023-11-22T05:21:39;0.22;83.18
51878;SHT31;37911;51.526;11.536;2023-11-22T05:24:42;0.24;83.30
51878;SHT31;37911;51.526;11.536;2023-11-22T05:27:48;0.18;83.55
51878;SHT31;37911;51.526;11.536;2023-11-22T05:30:52;0.06;83.83
51878;SHT31;37911;51.526;11.536;2023-11-22T05:33:55;0.09;83.75
51878;SHT31;37911;51.526;11.536;2023-11-22T05:36:59;0.11;84.11
51878;SHT31;37911;51.526;11.536;2023-11-22T05:40:03;0.15;84.29
51878;SHT31;37911;51.526;11.536;2023-11-22T05:43:12;0.18;84.18
51878;SHT31;37911;51.526;11.536;2023-11-22T05:46:15;0.09;84.24
51878;SHT31;37911;51.526;11.536;2023-11-22T05:49:22;0.11;84.23
51878;SHT31;37911;51.526;11.536;2023-11-22T05:52:25;0.11;84.25
51878;SHT31;37911;51.526;11.536;2023-11-22T05:55:28;-0.03;84.31
51878;SHT31;37911;51.526;11.536;2023-11-22T05:58:35;0.04;84.33
51878;SHT31;37911;51.526;11.536;2023-11-22T06:01:40;-0.05;84.35
51878;SHT31;37911;51.526;11.536;2023-11-22T06:04:43;-0.03;84.61
51878;SHT31;37911;51.526;11.536;2023-11-22T06:07:47;-0.02;84.87
51878;SHT31;37911;51.526;11.536;2023-11-22T06:10:50;-0.05;84.02
51878;SHT31;37911;51.526;11.536;2023-11-22T06:13:59;-0.17;83.77
51878;SHT31;37911;51.526;11.536;2023-11-22T06:17:04;-0.19;83.71
51878;SHT31;37911;51.526;11.536;2023-11-22T06:20:08;-0.20;83.66
51878;SHT31;37911;51.526;11.536;2023-11-22T06:23:12;-0.32;83.92
51878;SHT31;37911;51.526;11.536;2023-11-22T06:26:16;-0.29;84.44
51878;SHT31;37911;51.526;11.536;2023-11-22T06:29:22;-0.19;84.30
51878;SHT31;37911;51.526;11.536;2023-11-22T06:32:26;-0.20;83.88
51878;SHT31;37911;51.526;11.536;2023-11-22T06:35:29;-0.34;83.21
51878;SHT31;37911;51.526;11.536;2023-11-22T06:38:33;-0.34;83.27
51878;SHT31;37911;51.526;11.536;2023-11-22T06:41:36;-0.41;83.15
51878;SHT31;37911;51.526;11.536;2023-11-22T06:44:42;-0.43;83.39
51878;SHT31;37911;51.526;11.536;2023-11-22T06:47:48;-0.44;83.39
51878;SHT31;37911;51.526;11.536;2023-11-22T06:50:52;-0.39;82.92
51878;SHT31;37911;51.526;11.536;2023-11-22T06:53:55;-0.41;82.79
51878;SHT31;37911;51.526;11.536;2023-11-22T06:56:59;-0.40;82.64
51878;SHT31;37911;51.526;11.536;2023-11-22T07:00:07;-0.36;82.46
51878;SHT31;37911;51.526;11.536;2023-11-22T07:03:10;-0.36;82.64
51878;SHT31;37911;51.526;11.536;2023-11-22T07:06:15;-0.39;82.78
51878;SHT31;37911;51.526;11.536;2023-11-22T07:09:18;-0.37;82.89
51878;SHT31;37911;51.526;11.536;2023-11-22T07:12:23;-0.29;82.96
51878;SHT31;37911;51.526;11.536;2023-11-22T07:15:29;-0.22;83.16
51878;SHT31;37911;51.526;11.536;2023-11-22T07:18:33;-0.23;83.12
51878;SHT31;37911;51.526;11.536;2023-11-22T07:21:37;-0.20;83.25
51878;SHT31;37911;51.526;11.536;2023-11-22T07:24:41;-0.15;83.51
51878;SHT31;37911;51.526;11.536;2023-11-22T07:27:45;-0.16;84.24
51878;SHT31;37911;51.526;11.536;2023-11-22T07:30:52;0.01;84.24
51878;SHT31;37911;51.526;11.536;2023-11-22T07:33:56;0.04;84.48
51878;SHT31;37911;51.526;11.536;2023-11-22T07:37:02;0.09;84.05
51878;SHT31;37911;51.526;11.536;2023-11-22T07:40:08;0.04;83.78
51878;SHT31;37911;51.526;11.536;2023-11-22T07:43:14;0.04;83.77
51878;SHT31;37911;51.526;11.536;2023-11-22T07:46:20;-0.01;83.70
51878;SHT31;37911;51.526;11.536;2023-11-22T07:49:24;-0.16;83.20
51878;SHT31;37911;51.526;11.536;2023-11-22T07:52:27;-0.17;83.30
51878;SHT31;37911;51.526;11.536;2023-11-22T07:55:31;-0.20;83.03
51878;SHT31;37911;51.526;11.536;2023-11-22T07:58:38;-0.23;83.06
51878;SHT31;37911;51.526;11.536;2023-11-22T08:01:45;-0.17;83.03
51878;SHT31;37911;51.526;11.536;2023-11-22T08:04:49;-0.15;83.12
51878;SHT31;37911;51.526;11.536;2023-11-22T08:07:53;-0.10;83.29
51878;SHT31;37911;51.526;11.536;2023-11-22T08:10:57;-0.06;83.03
51878;SHT31;37911;51.526;11.536;2023-11-22T08:14:02;0.01;82.50
51878;SHT31;37911;51.526;11.536;2023-11-22T08:17:09;0.01;81.89
51878;SHT31;37911;51.526;11.536;2023-11-22T08:20:14;0.05;80.90
51878;SHT31;37911;51.526;11.536;2023-11-22T08:23:18;0.09;79.75
51878;SHT31;37911;51.526;11.536;2023-11-22T08:26:21;0.11;79.97
51878;SHT31;37911;51.526;11.536;2023-11-22T08:29:26;0.19;79.66
51878;SHT31;37911;51.526;11.536;2023-11-22T08:32:32;0.29;79.87
51878;SHT31;37911;51.526;11.536;2023-11-22T08:35:36;0.29;79.01
51878;SHT31;37911;51.526;11.536;2023-11-22T08:38:39;0.24;78.70
51878;SHT31;37911;51.526;11.536;2023-11-22T08:41:44;0.36;79.06
51878;SHT31;37911;51.526;11.536;2023-11-22T08:44:50;0.49;79.07
51878;SHT31;37911;51.526;11.536;2023-11-22T08:47:56;0.46;78.00
51878;SHT31;37911;51.526;11.536;2023-11-22T08:51:00;0.46;77.58
51878;SHT31;37911;51.526;11.536;2023-11-22T08:54:04;0.70;76.91
51878;SHT31;37911;51.526;11.536;2023-11-22T08:57:08;0.81;76.48
51878;SHT31;37911;51.526;11.536;2023-11-22T09:00:12;0.97;76.14
51878;SHT31;37911;51.526;11.536;2023-11-22T09:03:18;1.21;75.75
51878;SHT31;37911;51.526;11.536;2023-11-22T09:06:22;1.30;75.21
51878;SHT31;37911;51.526;11.536;2023-11-22T09:09:26;1.55;74.69
51878;SHT31;37911;51.526;11.536;2023-11-22T09:12:31;1.82;74.35
51878;SHT31;37911;51.526;11.536;2023-11-22T09:15:35;1.94;73.50
51878;SHT31;37911;51.526;11.536;2023-11-22T09:18:41;1.83;73.11
51878;SHT31;37911;51.526;11.536;2023-11-22T09:21:45;1.72;73.24
51878;SHT31;37911;51.526;11.536;2023-11-22T09:24:48;1.30;73.27
51878;SHT31;37911;51.526;11.536;2023-11-22T09:27:53;1.04;74.29
51878;SHT31;37911;51.526;11.536;2023-11-22T09:30:59;1.05;74.68
51878;SHT31;37911;51.526;11.536;2023-11-22T09:34:09;1.19;75.36
51878;SHT31;37911;51.526;11.536;2023-11-22T09:37:13;1.47;74.74
51878;SHT31;37911;51.526;11.536;2023-11-22T09:40:17;1.95;73.80
51878;SHT31;37911;51.526;11.536;2023-11-22T09:43:22;2.34;72.60
51878;SHT31;37911;51.526;11.536;2023-11-22T09:46:26;2.63;70.81
51878;SHT31;37911;51.526;11.536;2023-11-22T09:49:33;2.36;70.88
51878;SHT31;37911;51.526;11.536;2023-11-22T09:52:39;2.15;71.46
51878;SHT31;37911;51.526;11.536;2023-11-22T09:55:45;2.29;71.76
51878;SHT31;37911;51.526;11.536;2023-11-22T09:58:52;2.41;71.85
51878;SHT31;37911;51.526;11.536;2023-11-22T10:01:56;2.46;71.18
51878;SHT31;37911;51.526;11.536;2023-11-22T10:05:06;2.60;71.13
51878;SHT31;37911;51.526;11.536;2023-11-22T10:08:09;2.57;69.37
51878;SHT31;37911;51.526;11.536;2023-11-22T10:11:15;2.34;69.01
51878;SHT31;37911;51.526;11.536;2023-11-22T10:14:22;2.41;68.95
51878;SHT31;37911;51.526;11.536;2023-11-22T10:17:27;2.23;69.08
51878;SHT31;37911;51.526;11.536;2023-11-22T10:20:38;2.25;70.60
51878;SHT31;37911;51.526;11.536;2023-11-22T10:23:42;2.27;69.49
51878;SHT31;37911;51.526;11.536;2023-11-22T10:26:45;2.15;69.58
51878;SHT31;37911;51.526;11.536;2023-11-22T10:29:50;2.25;69.19
51878;SHT31;37911;51.526;11.536;2023-11-22T10:32:53;2.27;69.67
51878;SHT31;37911;51.526;11.536;2023-11-22T10:36:01;2.25;69.29
51878;SHT31;37911;51.526;11.536;2023-11-22T10:39:08;2.16;69.32
51878;SHT31;37911;51.526;11.536;2023-11-22T10:42:17;2.26;70.18
51878;SHT31;37911;51.526;11.536;2023-11-22T10:45:25;2.30;70.48
51878;SHT31;37911;51.526;11.536;2023-11-22T10:48:31;2.41;69.83
51878;SHT31;37911;51.526;11.536;2023-11-22T10:51:39;2.58;69.02
51878;SHT31;37911;51.526;11.536;2023-11-22T10:54:44;2.60;68.60
51878;SHT31;37911;51.526;11.536;2023-11-22T10:57:51;2.74;69.02
51878;SHT31;37911;51.526;11.536;2023-11-22T11:00:56;2.67;69.20
51878;SHT31;37911;51.526;11.536;2023-11-22T11:04:01;2.83;68.12
51878;SHT31;37911;51.526;11.536;2023-11-22T11:07:11;2.94;67.51
51878;SHT31;37911;51.526;11.536;2023-11-22T11:10:17;3.08;67.27
51878;SHT31;37911;51.526;11.536;2023-11-22T11:13:22;3.05;66.37
51878;SHT31;37911;51.526;11.536;2023-11-22T11:16:26;3.15;65.81
51878;SHT31;37911;51.526;11.536;2023-11-22T11:19:31;3.45;65.88
51878;SHT31;37911;51.526;11.536;2023-11-22T11:22:39;3.22;63.65
51878;SHT31;37911;51.526;11.536;2023-11-22T11:25:42;3.22;64.86
51878;SHT31;37911;51.526;11.536;2023-11-22T11:28:47;3.15;64.32
51878;SHT31;37911;51.526;11.536;2023-11-22T11:31:50;3.29;65.76
51878;SHT31;37911;51.526;11.536;2023-11-22T11:34:56;3.22;64.51
51878;SHT31;37911;51.526;11.536;2023-11-22T11:38:03;3.14;64.89
51878;SHT31;37911;51.526;11.536;2023-11-22T11:41:10;3.12;64.37
51878;SHT31;37911;51.526;11.536;2023-11-22T11:44:14;3.08;64.80
51878;SHT31;37911;51.526;11.536;2023-11-22T11:47:20;3.25;64.50
51878;SHT31;37911;51.526;11.536;2023-11-22T11:50:24;3.36;65.43
51878;SHT31;37911;51.526;11.536;2023-11-22T11:53:30;3.56;65.70
51878;SHT31;37911;51.526;11.536;2023-11-22T11:56:34;3.73;64.95
51878;SHT31;37911;51.526;11.536;2023-11-22T11:59:37;3.94;64.21
51878;SHT31;37911;51.526;11.536;2023-11-22T12:02:41;3.60;63.58
51878;SHT31;37911;51.526;11.536;2023-11-22T12:05:44;3.65;64.17
51878;SHT31;37911;51.526;11.536;2023-11-22T12:08:51;3.75;63.87
51878;SHT31;37911;51.526;11.536;2023-11-22T12:11:54;3.87;64.11
51878;SHT31;37911;51.526;11.536;2023-11-22T12:14:58;4.11;63.68
51878;SHT31;37911;51.526;11.536;2023-11-22T12:18:03;4.13;63.10
51878;SHT31;37911;51.526;11.536;2023-11-22T12:21:07;3.90;63.10
51878;SHT31;37911;51.526;11.536;2023-11-22T12:24:16;3.60;63.52
51878;SHT31;37911;51.526;11.536;2023-11-22T12:27:20;3.76;64.95
51878;SHT31;37911;51.526;11.536;2023-11-22T12:30:31;3.75;63.66
51878;SHT31;37911;51.526;11.536;2023-11-22T12:33:34;3.65;64.03
51878;SHT31;37911;51.526;11.536;2023-11-22T12:36:40;3.85;64.16
51878;SHT31;37911;51.526;11.536;2023-11-22T12:39:46;4.01;64.19
51878;SHT31;37911;51.526;11.536;2023-11-22T12:42:52;3.73;64.05
51878;SHT31;37911;51.526;11.536;2023-11-22T12:45:59;3.80;63.73
51878;SHT31;37911;51.526;11.536;2023-11-22T12:49:06;3.58;64.31
51878;SHT31;37911;51.526;11.536;2023-11-22T12:52:11;3.62;64.36
51878;SHT31;37911;51.526;11.536;2023-11-22T12:55:17;3.45;64.34
51878;SHT31;37911;51.526;11.536;2023-11-22T12:58:22;3.43;64.15
51878;SHT31;37911;51.526;11.536;2023-11-22T13:01:26;3.26;64.97
51878;SHT31;37911;51.526;11.536;2023-11-22T13:04:29;3.35;64.92
51878;SHT31;37911;51.526;11.536;2023-11-22T13:07:33;3.14;64.57
51878;SHT31;37911;51.526;11.536;2023-11-22T13:10:40;3.19;65.51
51878;SHT31;37911;51.526;11.536;2023-11-22T13:13:46;3.01;66.11
51878;SHT31;37911;51.526;11.536;2023-11-22T13:16:50;3.16;66.38
51878;SHT31;37911;51.526;11.536;2023-11-22T13:19:54;3.07;66.77
51878;SHT31;37911;51.526;11.536;2023-11-22T13:22:57;2.83;67.03
51878;SHT31;37911;51.526;11.536;2023-11-22T13:26:04;2.74;67.52
51878;SHT31;37911;51.526;11.536;2023-11-22T13:29:10;2.90;67.61
51878;SHT31;37911;51.526;11.536;2023-11-22T13:32:13;2.85;67.44
51878;SHT31;37911;51.526;11.536;2023-11-22T13:35:17;2.76;67.82
51878;SHT31;37911;51.526;11.536;2023-11-22T13:38:22;2.87;68.17
51878;SHT31;37911;51.526;11.536;2023-11-22T13:41:28;2.54;69.00
51878;SHT31;37911;51.526;11.536;2023-11-22T13:44:32;2.54;69.56
51878;SHT31;37911;51.526;11.536;2023-11-22T13:47:36;2.60;69.96
51878;SHT31;37911;51.526;11.536;2023-11-22T13:50:39;2.41;69.70
51878;SHT31;37911;51.526;11.536;2023-11-22T13:53:43;2.46;70.56
51878;SHT31;37911;51.526;11.536;2023-11-22T13:56:55;2.60;69.01
51878;SHT31;37911;51.526;11.536;2023-11-22T13:59:59;2.43;70.64
51878;SHT31;37911;51.526;11.536;2023-11-22T14:03:05;2.36;69.89
51878;SHT31;37911;51.526;11.536;2023-11-22T14:06:10;2.39;70.63
51878;SHT31;37911;51.526;11.536;2023-11-22T14:09:17;2.39;69.88
51878;SHT31;37911;51.526;11.536;2023-11-22T14:12:23;2.46;70.19
51878;SHT31;37911;51.526;11.536;2023-11-22T14:15:26;2.43;70.13
51878;SHT31;37911;51.526;11.536;2023-11-22T14:18:31;2.36;70.11
51878;SHT31;37911;51.526;11.536;2023-11-22T14:21:34;2.34;70.45
51878;SHT31;37911;51.526;11.536;2023-11-22T14:24:38;2.32;69.93
51878;SHT31;37911;51.526;11.536;2023-11-22T14:27:45;2.20;70.65
51878;SHT31;37911;51.526;11.536;2023-11-22T14:30:49;2.13;70.65
51878;SHT31;37911;51.526;11.536;2023-11-22T14:33:55;2.12;72.20
51878;SHT31;37911;51.526;11.536;2023-11-22T14:36:59;2.09;72.04
51878;SHT31;37911;51.526;11.536;2023-11-22T14:40:03;2.10;71.80
51878;SHT31;37911;51.526;11.536;2023-11-22T14:43:16;2.10;71.90
51878;SHT31;37911;51.526;11.536;2023-11-22T14:46:19;2.07;72.27
51878;SHT31;37911;51.526;11.536;2023-11-22T14:49:24;2.01;72.84
51878;SHT31;37911;51.526;11.536;2023-11-22T14:52:27;1.98;72.76
51878;SHT31;37911;51.526;11.536;2023-11-22T14:55:31;1.94;73.08
51878;SHT31;37911;51.526;11.536;2023-11-22T14:58:45;1.83;73.85
51878;SHT31;37911;51.526;11.536;2023-11-22T15:01:54;1.78;73.74
51878;SHT31;37911;51.526;11.536;2023-11-22T15:04:57;1.66;73.72
51878;SHT31;37911;51.526;11.536;2023-11-22T15:08:01;1.64;73.60
51878;SHT31;37911;51.526;11.536;2023-11-22T15:11:05;1.62;74.13
51878;SHT31;37911;51.526;11.536;2023-11-22T15:14:11;1.59;74.07
51878;SHT31;37911;51.526;11.536;2023-11-22T15:17:14;1.56;73.95
51878;SHT31;37911;51.526;11.536;2023-11-22T15:20:18;1.45;74.69
51878;SHT31;37911;51.526;11.536;2023-11-22T15:23:22;1.44;74.86
51878;SHT31;37911;51.526;11.536;2023-11-22T15:26:25;1.41;75.15
51878;SHT31;37911;51.526;11.536;2023-11-22T15:29:32;1.44;75.34
51878;SHT31;37911;51.526;11.536;2023-11-22T15:32:36;1.52;75.35
51878;SHT31;37911;51.526;11.536;2023-11-22T15:35:39;1.51;75.08
51878;SHT31;37911;51.526;11.536;2023-11-22T15:38:43;1.51;74.85
51878;SHT31;37911;51.526;11.536;2023-11-22T15:41:46;1.52;74.48
51878;SHT31;37911;51.526;11.536;2023-11-22T15:44:53;1.48;74.87
51878;SHT31;37911;51.526;11.536;2023-11-22T15:47:56;1.47;74.80
51878;SHT31;37911;51.526;11.536;2023-11-22T15:51:00;1.44;74.90
51878;SHT31;37911;51.526;11.536;2023-11-22T15:54:04;1.45;74.96
51878;SHT31;37911;51.526;11.536;2023-11-22T15:57:08;1.48;74.70
51878;SHT31;37911;51.526;11.536;2023-11-22T16:00:15;1.48;74.72
51878;SHT31;37911;51.526;11.536;2023-11-22T16:03:21;1.45;74.96
51878;SHT31;37911;51.526;11.536;2023-11-22T16:06:25;1.44;75.23
51878;SHT31;37911;51.526;11.536;2023-11-22T16:09:29;1.44;75.33
51878;SHT31;37911;51.526;11.536;2023-11-22T16:12:33;1.45;75.34
51878;SHT31;37911;51.526;11.536;2023-11-22T16:15:40;1.45;75.56
51878;SHT31;37911;51.526;11.536;2023-11-22T16:18:43;1.37;75.62
51878;SHT31;37911;51.526;11.536;2023-11-22T16:21:47;1.40;75.70
51878;SHT31;37911;51.526;11.536;2023-11-22T16:24:50;1.37;76.25
51878;SHT31;37911;51.526;11.536;2023-11-22T16:27:53;1.31;76.35
51878;SHT31;37911;51.526;11.536;2023-11-22T16:31:00;1.28;76.50
51878;SHT31;37911;51.526;11.536;2023-11-22T16:34:06;1.30;76.45
51878;SHT31;37911;51.526;11.536;2023-11-22T16:37:10;1.34;76.06
51878;SHT31;37911;51.526;11.536;2023-11-22T16:40:13;1.28;76.58
51878;SHT31;37911;51.526;11.536;2023-11-22T16:43:17;1.27;76.62
51878;SHT31;37911;51.526;11.536;2023-11-22T16:46:23;1.26;76.87
51878;SHT31;37911;51.526;11.536;2023-11-22T16:49:26;1.17;76.80
51878;SHT31;37911;51.526;11.536;2023-11-22T16:52:30;1.16;77.42
51878;SHT31;37911;51.526;11.536;2023-11-22T16:55:33;1.20;77.17
51878;SHT31;37911;51.526;11.536;2023-11-22T16:58:37;1.23;77.02
51878;SHT31;37911;51.526;11.536;2023-11-22T17:01:43;1.24;76.76
51878;SHT31;37911;51.526;11.536;2023-11-22T17:04:47;1.16;76.69
51878;SHT31;37911;51.526;11.536;2023-11-22T17:07:51;1.08;76.89
51878;SHT31;37911;51.526;11.536;2023-11-22T17:10:54;1.08;76.87
51878;SHT31;37911;51.526;11.536;2023-11-22T17:13:57;0.97;77.03
51878;SHT31;37911;51.526;11.536;2023-11-22T17:17:05;0.97;77.23
51878;SHT31;37911;51.526;11.536;2023-11-22T17:20:10;0.91;77.05
51878;SHT31;37911;51.526;11.536;2023-11-22T17:23:13;0.84;77.40
51878;SHT31;37911;51.526;11.536;2023-11-22T17:26:17;0.83;77.92
51878;SHT31;37911;51.526;11.536;2023-11-22T17:29:21;0.76;77.97
51878;SHT31;37911;51.526;11.536;2023-11-22T17:32:27;0.70;78.03
51878;SHT31;37911;51.526;11.536;2023-11-22T17:35:31;0.72;78.30
51878;SHT31;37911;51.526;11.536;2023-11-22T17:38:34;0.75;78.07
51878;SHT31;37911;51.526;11.536;2023-11-22T17:41:38;0.72;78.21
51878;SHT31;37911;51.526;11.536;2023-11-22T17:44:42;0.66;78.70
51878;SHT31;37911;51.526;11.536;2023-11-22T17:47:52;0.66;78.98
51878;SHT31;37911;51.526;11.536;2023-11-22T17:50:55;0.70;79.32
51878;SHT31;37911;51.526;11.536;2023-11-22T17:53:59;0.72;79.10
51878;SHT31;37911;51.526;11.536;2023-11-22T17:57:03;0.69;79.33
51878;SHT31;37911;51.526;11.536;2023-11-22T18:00:09;0.75;79.65
51878;SHT31;37911;51.526;11.536;2023-11-22T18:03:18;0.81;79.65
51878;SHT31;37911;51.526;11.536;2023-11-22T18:06:22;0.81;79.51
51878;SHT31;37911;51.526;11.536;2023-11-22T18:09:25;0.87;79.61
51878;SHT31;37911;51.526;11.536;2023-11-22T18:12:28;0.89;79.39
51878;SHT31;37911;51.526;11.536;2023-11-22T18:15:32;0.79;79.17
51878;SHT31;37911;51.526;11.536;2023-11-22T18:18:40;0.77;79.17
51878;SHT31;37911;51.526;11.536;2023-11-22T18:21:44;0.70;79.20
51878;SHT31;37911;51.526;11.536;2023-11-22T18:24:47;0.75;78.57
51878;SHT31;37911;51.526;11.536;2023-11-22T18:27:51;0.75;78.88
51878;SHT31;37911;51.526;11.536;2023-11-22T18:30:54;0.68;78.65
51878;SHT31;37911;51.526;11.536;2023-11-22T18:34:00;0.66;79.04
51878;SHT31;37911;51.526;11.536;2023-11-22T18:37:04;0.68;78.57
51878;SHT31;37911;51.526;11.536;2023-11-22T18:40:08;0.59;78.92
51878;SHT31;37911;51.526;11.536;2023-11-22T18:43:11;0.58;79.40
51878;SHT31;37911;51.526;11.536;2023-11-22T18:46:15;0.60;79.20
51878;SHT31;37911;51.526;11.536;2023-11-22T18:49:21;0.65;79.18
51878;SHT31;37911;51.526;11.536;2023-11-22T18:52:26;0.63;78.75
51878;SHT31;37911;51.526;11.536;2023-11-22T18:55:29;0.59;78.08
51878;SHT31;37911;51.526;11.536;2023-11-22T18:58:34;0.56;78.35
51878;SHT31;37911;51.526;11.536;2023-11-22T19:01:38;0.58;78.50
51878;SHT31;37911;51.526;11.536;2023-11-22T19:04:44;0.66;78.60
51878;SHT31;37911;51.526;11.536;2023-11-22T19:07:48;0.66;78.08
51878;SHT31;37911;51.526;11.536;2023-11-22T19:10:51;0.69;77.69
51878;SHT31;37911;51.526;11.536;2023-11-22T19:13:55;0.72;77.73
51878;SHT31;37911;51.526;11.536;2023-11-22T19:16:58;0.63;78.36
51878;SHT31;37911;51.526;11.536;2023-11-22T19:20:06;0.58;78.29
51878;SHT31;37911;51.526;11.536;2023-11-22T19:23:11;0.59;78.64
51878;SHT31;37911;51.526;11.536;2023-11-22T19:26:19;0.65;78.34